Time;durP1;ratioP1;P1;durP2;ratioP2;P2;SDS_P1;SDS_P2;PMS_P1;PMS_P2;Temp;Humidity;BMP_temperature;BMP_pressure;BME280_temperature;BME280_humidity;BME280_pressure;Samples;Min_cycle;Max_cycle;Signal;HPM_P1;HPM_P2
2022/06/23 11:02:52;;;;;;;5.10;3.22;;;;;;;27.37;33.31;101130.53;5076267;27;92231;-37
2022/06/23 11:05:24;;;;;;;22.67;2.92;;;;;;;26.78;34.98;101126.56;5120397;27;20031;-46
2022/06/23 11:12:13;;;;;;;6.63;3.05;;;;;;;26.10;36.00;101113.97;5053483;27;20385;-49
2022/06/23 11:14:43;;;;;;;4.35;2.90;;;;;;;27.05;34.44;101114.66;5011525;28;20077;-48
2022/06/23 11:17:21;;;;;;;5.63;3.17;;;;;;;27.15;33.87;101120.31;5023519;28;20018;-41
2022/06/23 11:20:02;;;;;;;7.88;3.17;;;;;;;27.24;33.99;101113.16;5024661;28;20026;-36
2022/06/23 11:22:33;;;;;;;6.70;3.08;;;;;;;27.63;33.31;101110.16;5024948;28;20028;-48
2022/06/23 11:25:02;;;;;;;;;;;;;;;27.98;32.19;101117.16;5030341;28;20148;-39
2022/06/23 11:37:04;;;;;;;7.85;2.90;;;;;;;30.66;25.50;101150.53;5114208;27;20894;-72
2022/06/23 11:39:39;;;;;;;5.95;2.40;;;;;;;30.81;26.46;101153.25;5099302;27;20390;-71
2022/06/23 11:42:16;;;;;;;12.82;3.03;;;;;;;30.44;26.56;101148.91;5058308;28;20149;-72
2022/06/23 11:45:16;;;;;;;19.50;2.75;;;;;;;30.81;27.51;101153.25;5052514;28;96890;-72
2022/06/23 11:48:00;;;;;;;9.93;2.60;;;;;;;30.64;26.07;101147.16;5059012;28;20401;-72
2022/06/23 11:50:34;;;;;;;15.98;2.85;;;;;;;30.82;27.34;101148.50;5018471;28;20080;-72
2022/06/23 11:53:32;;;;;;;8.38;2.40;;;;;;;31.32;25.47;101141.81;5043718;28;20048;-72
2022/06/23 11:56:08;;;;;;;5.72;2.60;;;;;;;30.79;27.16;101138.75;5041469;28;20028;-72
2022/06/23 11:58:40;;;;;;;6.68;2.60;;;;;;;31.05;26.58;101131.88;5034869;28;20069;-72
2022/06/23 12:01:15;;;;;;;5.68;2.42;;;;;;;31.50;25.65;101127.13;5016049;28;20045;-72
2022/06/23 12:03:49;;;;;;;5.85;2.70;;;;;;;31.21;25.62;101134.56;5010861;28;73192;-72
2022/06/23 12:08:55;;;;;;;5.90;2.25;;;;;;;31.82;24.26;101139.72;5117156;27;20807;-72
2022/06/23 12:11:21;;;;;;;3.88;1.83;;;;;;;31.92;24.07;101128.44;5081413;28;20050;-72
2022/06/23 12:13:47;;;;;;;12.25;2.20;;;;;;;32.87;22.66;101126.84;5063991;28;20032;-72
2022/06/23 12:16:12;;;;;;;6.95;2.40;;;;;;;32.97;23.27;101121.06;5086490;28;20024;-73
2022/06/23 12:18:48;;;;;;;6.10;2.30;;;;;;;32.95;22.23;101112.13;5063171;28;20071;-72
2022/06/23 12:21:17;;;;;;;9.60;2.42;;;;;;;32.72;22.92;101118.56;5059067;28;20065;-72
2022/06/23 12:23:52;;;;;;;6.82;2.47;;;;;;;33.66;21.45;101116.63;5066920;28;20539;-72
2022/06/23 12:26:25;;;;;;;5.38;2.40;;;;;;;33.19;22.05;101100.78;5070088;28;20016;-72
2022/06/23 12:29:15;;;;;;;8.15;2.90;;;;;;;32.54;22.51;101095.84;5062021;28;20028;-72
2022/06/23 12:31:54;;;;;;;9.20;2.83;;;;;;;32.82;22.26;101101.63;5065590;28;20044;-72
2022/06/23 12:34:40;;;;;;;9.40;2.10;;;;;;;32.59;22.54;101092.94;5064727;28;20103;-72
2022/06/23 12:37:23;;;;;;;5.88;2.50;;;;;;;32.82;22.93;101090.41;5060677;28;20046;-72
2022/06/23 12:40:14;;;;;;;4.93;2.50;;;;;;;32.22;22.66;101098.44;5056006;28;20074;-72
2022/06/23 12:42:46;;;;;;;10.02;2.53;;;;;;;33.07;22.01;101092.88;5068959;28;20086;-72
2022/06/23 12:45:30;;;;;;;5.53;1.83;;;;;;;33.43;21.41;101100.72;5062432;28;20377;-69
2022/06/23 12:48:17;;;;;;;9.30;2.22;;;;;;;33.50;21.62;101089.94;5058581;28;20020;-72
2022/06/23 12:50:56;;;;;;;10.02;2.05;;;;;;;33.59;21.78;101088.13;5067490;28;20571;-72
2022/06/23 12:53:37;;;;;;;10.93;2.20;;;;;;;33.84;21.70;101088.75;5068239;28;20024;-72
2022/06/23 12:56:05;;;;;;;10.43;2.58;;;;;;;33.82;22.22;101085.44;5067172;28;20027;-71
2022/06/23 12:59:04;;;;;;;3.40;2.00;;;;;;;33.88;21.81;101087.00;5065645;28;20412;-71
2022/06/23 13:01:38;;;;;;;6.25;2.53;;;;;;;32.91;22.48;101092.25;5043603;28;20032;-73
2022/06/23 13:04:11;;;;;;;8.25;2.00;;;;;;;32.41;23.61;101079.75;5041754;28;20032;-71
2022/06/23 13:06:57;;;;;;;9.95;2.58;;;;;;;32.62;23.97;101075.53;5063657;28;20028;-71
2022/06/23 13:09:22;;;;;;;6.57;2.30;;;;;;;33.05;23.71;101072.66;5071379;27;20126;-71
2022/06/23 13:12:08;;;;;;;12.68;2.60;;;;;;;33.14;23.61;101070.88;5084877;28;20194;-71
2022/06/23 13:14:50;;;;;;;8.35;2.58;;;;;;;32.75;24.03;101065.53;5077410;28;20119;-70
2022/06/23 13:17:38;;;;;;;12.20;2.60;;;;;;;32.66;23.87;101065.34;5078930;28;20107;-71
2022/06/23 13:20:19;;;;;;;10.15;2.55;;;;;;;33.32;22.95;101068.31;5062932;28;20054;-71
2022/06/23 13:23:09;;;;;;;8.02;1.90;;;;;;;33.89;23.36;101057.78;5072602;28;20074;-70
2022/06/23 13:25:42;;;;;;;6.85;2.10;;;;;;;34.35;22.36;101043.66;5063495;28;20030;-71
2022/06/23 13:28:26;;;;;;;3.90;2.17;;;;;;;34.26;22.88;101052.00;5051021;28;20169;-70
2022/06/23 13:31:05;;;;;;;5.75;2.20;;;;;;;34.89;21.80;101055.16;5069093;28;20040;-71
2022/06/23 13:33:41;;;;;;;5.22;2.70;;;;;;;34.69;21.66;101059.25;5063367;28;20016;-71
2022/06/23 13:36:20;;;;;;;4.00;2.15;;;;;;;34.48;21.12;101042.00;5067275;28;20053;-70
2022/06/23 13:38:54;;;;;;;12.82;2.42;;;;;;;34.76;21.29;101043.63;5065493;28;20042;-71
2022/06/23 13:41:52;;;;;;;8.32;2.67;;;;;;;34.52;21.72;101043.03;5063729;28;20031;-71
2022/06/23 13:44:51;;;;;;;5.78;2.20;;;;;;;34.37;21.71;101030.13;5059222;28;20128;-71
2022/06/23 13:47:40;;;;;;;5.63;2.47;;;;;;;34.31;21.86;101030.56;5064798;28;20058;-72
2022/06/23 13:50:19;;;;;;;9.48;2.40;;;;;;;34.57;21.99;101031.69;5054413;28;20044;-70
2022/06/23 13:53:00;;;;;;;3.97;2.10;;;;;;;35.00;21.56;101028.44;5061061;28;20023;-69
2022/06/23 13:55:36;;;;;;;4.45;2.30;;;;;;;34.85;21.56;101023.16;5058713;28;20108;-71
2022/06/23 13:58:16;;;;;;;6.15;2.13;;;;;;;34.70;21.84;101016.75;5061783;28;20024;-70
2022/06/23 14:01:12;;;;;;;3.97;2.08;;;;;;;35.88;21.00;101018.25;5046570;28;99543;-71
2022/06/23 14:04:19;;;;;;;5.32;2.42;;;;;;;35.61;21.09;101007.19;5002737;28;20044;-71
2022/06/23 14:06:50;;;;;;;5.50;2.40;;;;;;;35.57;20.43;101000.53;5052190;28;20059;-73
2022/06/23 14:09:25;;;;;;;8.05;2.95;;;;;;;36.08;20.04;100999.09;5043785;28;20086;-71
2022/06/23 14:12:03;;;;;;;8.90;2.60;;;;;;;36.07;19.91;101003.09;5055755;28;20122;-70
2022/06/23 14:14:37;;;;;;;3.47;2.30;;;;;;;34.44;20.57;101007.22;5044271;28;20055;-70
2022/06/23 14:17:18;;;;;;;7.80;2.13;;;;;;;34.54;20.75;101001.38;5061715;28;20017;-70
2022/06/23 14:20:06;;;;;;;9.93;2.22;;;;;;;34.62;20.93;100997.78;5041183;28;20027;-70
2022/06/23 14:22:40;;;;;;;8.10;2.15;;;;;;;35.45;20.63;101003.09;5039546;28;20059;-71
2022/06/23 14:25:25;;;;;;;13.15;2.78;;;;;;;36.04;20.33;100998.09;5053444;28;20065;-71
2022/06/23 14:27:56;;;;;;;3.92;2.42;;;;;;;36.35;19.91;100987.53;5041145;28;20020;-71
2022/06/23 14:30:31;;;;;;;4.35;2.22;;;;;;;35.20;20.85;100985.69;5058962;28;20141;-71
2022/06/23 14:33:02;;;;;;;6.70;2.30;;;;;;;35.43;20.87;100983.72;5044590;28;20051;-71
2022/06/23 14:35:30;;;;;;;3.83;2.08;;;;;;;35.55;21.28;100985.94;5045183;28;20032;-72
2022/06/23 14:38:05;;;;;;;3.47;2.03;;;;;;;36.24;20.35;100986.19;5047287;28;20020;-72
2022/06/23 14:40:46;;;;;;;9.60;2.55;;;;;;;35.59;20.07;100986.94;5051982;28;20041;-71
2022/06/23 14:43:30;;;;;;;2.85;1.85;;;;;;;34.49;20.79;100984.59;5060773;28;20044;-71
2022/06/23 14:46:23;;;;;;;4.57;2.15;;;;;;;34.97;20.37;100986.88;5050387;28;20060;-71
2022/06/23 14:48:59;;;;;;;3.33;1.77;;;;;;;35.84;19.83;100979.75;5043629;28;20039;-71
2022/06/23 14:51:46;;;;;;;11.43;2.58;;;;;;;34.64;20.68;100977.81;5050943;28;20028;-71
2022/06/23 14:54:18;;;;;;;11.60;2.13;;;;;;;35.15;20.46;100983.03;5069934;28;20036;-71
2022/06/23 14:57:09;;;;;;;3.63;2.20;;;;;;;35.26;19.86;100973.16;5029872;28;20013;-71
2022/06/23 14:59:48;;;;;;;4.57;2.00;;;;;;;35.16;20.58;100970.63;5065774;28;20123;-72
2022/06/23 15:02:32;;;;;;;6.63;1.90;;;;;;;35.54;20.40;100961.75;5040911;28;20009;-72
2022/06/23 15:05:24;;;;;;;7.43;2.65;;;;;;;36.42;19.65;100959.72;5033069;28;20045;-72
2022/06/23 15:08:06;;;;;;;4.13;2.33;;;;;;;35.93;19.34;100949.66;4998738;28;20038;-71
2022/06/23 15:10:46;;;;;;;4.15;2.17;;;;;;;35.40;19.53;100949.69;5009851;28;20029;-71
2022/06/23 15:13:27;;;;;;;4.85;2.00;;;;;;;35.03;20.22;100957.44;5021747;28;20027;-72
2022/06/23 15:15:59;;;;;;;6.82;2.50;;;;;;;35.29;20.13;100947.19;5016321;28;20029;-72
2022/06/23 15:18:32;;;;;;;9.48;2.60;;;;;;;35.85;19.40;100945.59;5013943;28;20028;-72
2022/06/23 15:21:00;;;;;;;13.82;2.40;;;;;;;35.20;19.52;100951.91;5010170;28;20021;-71
2022/06/23 15:23:49;;;;;;;8.63;2.58;;;;;;;35.40;19.57;100944.06;5025277;28;20041;-72
2022/06/23 15:26:20;;;;;;;9.15;2.40;;;;;;;34.75;20.70;100949.09;5008395;28;20033;-72
2022/06/23 15:28:58;;;;;;;5.90;1.90;;;;;;;35.03;20.57;100946.19;5008909;28;20298;-72
2022/06/23 15:31:48;;;;;;;8.77;2.50;;;;;;;36.14;20.24;100944.22;5008143;28;20030;-72
2022/06/23 15:34:17;;;;;;;9.55;2.70;;;;;;;36.46;20.40;100936.50;5019187;28;20033;-72
2022/06/23 15:37:24;;;;;;;3.85;2.65;;;;;;;36.43;19.80;100937.97;5026536;28;20041;-72
2022/06/23 15:39:54;;;;;;;8.05;2.20;;;;;;;35.66;20.39;100930.94;4996600;28;20080;-72
2022/06/23 15:42:36;;;;;;;4.75;2.13;;;;;;;36.12;20.30;100938.06;5021371;28;20025;-72
2022/06/23 15:45:12;;;;;;;9.27;2.30;;;;;;;34.98;20.36;100926.63;5015114;28;20155;-71
2022/06/23 15:47:44;;;;;;;5.65;2.60;;;;;;;34.53;20.94;100932.22;5016178;28;20024;-71
2022/06/23 15:50:30;;;;;;;7.97;2.28;;;;;;;35.34;20.26;100930.16;5017106;28;20410;-71
2022/06/23 15:53:38;;;;;;;4.43;2.33;;;;;;;35.51;20.20;100928.59;5013899;28;20032;-72
2022/06/23 15:56:28;;;;;;;4.88;2.33;;;;;;;36.15;19.96;100931.78;5021500;28;20029;-71
2022/06/23 15:59:12;;;;;;;2.73;1.57;;;;;;;36.28;19.75;100913.06;5017649;28;20033;-71
2022/06/23 16:01:46;;;;;;;4.78;2.25;;;;;;;36.16;19.57;100910.88;5019452;28;20288;-71
2022/06/23 16:04:17;;;;;;;5.57;2.10;;;;;;;35.33;20.35;100911.56;5016529;28;20021;-71
2022/06/23 16:06:47;;;;;;;4.20;2.30;;;;;;;36.39;19.72;100912.44;5020923;28;21976;-71
2022/06/23 16:09:27;;;;;;;7.05;2.38;;;;;;;35.39;20.37;100919.88;5054419;28;20029;-71
2022/06/23 16:11:56;;;;;;;5.68;2.00;;;;;;;36.01;19.80;100905.72;5053772;28;20017;-71
2022/06/23 16:14:30;;;;;;;6.03;2.53;;;;;;;36.61;19.33;100916.25;5052837;28;20008;-72
2022/06/23 16:17:06;;;;;;;5.00;2.17;;;;;;;35.71;19.84;100902.63;5043314;28;20052;-72
2022/06/23 16:19:44;;;;;;;4.75;2.35;;;;;;;35.03;19.73;100903.97;5047769;28;20028;-71
2022/06/23 16:22:14;;;;;;;2.55;1.90;;;;;;;35.02;19.44;100905.13;5039852;28;20116;-72
2022/06/23 16:24:56;;;;;;;19.08;2.17;;;;;;;35.52;19.44;100904.91;5041491;28;20020;-72
2022/06/23 16:27:41;;;;;;;8.23;2.10;;;;;;;34.38;20.59;100899.66;5031113;28;20076;-71
2022/06/23 16:30:35;;;;;;;2.83;1.98;;;;;;;35.18;20.13;100900.75;4994468;28;20023;-70
2022/06/23 16:33:14;;;;;;;2.35;1.90;;;;;;;35.54;19.75;100889.34;4996856;28;20036;-71
2022/06/23 16:35:50;;;;;;;6.90;2.60;;;;;;;35.83;19.70;100890.75;5020076;28;20049;-71
2022/06/23 16:38:35;;;;;;;5.78;2.65;;;;;;;36.02;19.31;100899.75;5004536;28;20022;-72
2022/06/23 16:41:39;;;;;;;5.90;2.20;;;;;;;35.91;19.14;100892.78;5004043;28;20060;-71
2022/06/23 16:44:32;;;;;;;4.57;2.50;;;;;;;35.91;19.22;100897.59;5019091;28;20063;-70
2022/06/23 16:47:17;;;;;;;7.82;3.72;;;;;;;36.36;19.06;100898.97;5002001;28;20033;-71
2022/06/23 16:50:17;;;;;;;4.10;2.28;;;;;;;36.50;19.00;100903.63;5011743;28;20040;-71
2022/06/23 16:53:19;;;;;;;3.50;2.20;;;;;;;36.02;19.08;100887.66;5010471;28;20018;-71
2022/06/23 16:55:59;;;;;;;6.00;1.90;;;;;;;35.74;19.21;100887.09;5021343;28;20025;-70
2022/06/23 16:58:43;;;;;;;5.82;2.10;;;;;;;34.74;20.19;100899.59;5011001;28;20083;-71
2022/06/23 17:01:13;;;;;;;4.88;2.10;;;;;;;34.95;20.06;100890.66;5025861;28;20021;-71
2022/06/23 17:03:51;;;;;;;10.73;2.13;;;;;;;35.44;19.43;100888.81;5012286;28;20026;-71
2022/06/23 17:06:23;;;;;;;4.82;2.00;;;;;;;35.01;19.87;100886.56;5021756;28;20045;-71
2022/06/23 17:08:59;;;;;;;10.77;2.50;;;;;;;34.67;20.07;100876.72;5007728;28;20049;-71
2022/06/23 17:11:36;;;;;;;5.35;2.03;;;;;;;34.65;20.04;100881.84;5006548;28;20052;-69
2022/06/23 17:14:09;;;;;;;3.63;1.75;;;;;;;35.01;20.12;100872.50;5011763;28;20084;-70
2022/06/23 17:16:48;;;;;;;7.55;1.95;;;;;;;35.01;22.71;100878.13;5016193;28;20021;-71
2022/06/23 17:19:23;;;;;;;8.25;2.35;;;;;;;35.03;26.55;100878.66;5003048;28;20085;-71
2022/06/23 17:21:54;;;;;;;5.28;2.20;;;;;;;34.73;27.73;100878.25;5010509;28;20029;-70
2022/06/23 17:24:38;;;;;;;6.72;1.95;;;;;;;34.28;29.12;100892.25;5001492;28;20029;-70
2022/06/23 17:27:10;;;;;;;9.23;1.85;;;;;;;33.99;29.99;100877.78;5005231;28;20018;-71
2022/06/23 17:29:57;;;;;;;8.25;1.75;;;;;;;34.41;30.02;100884.94;5003784;28;20077;-70
2022/06/23 17:32:30;;;;;;;3.45;1.85;;;;;;;33.48;30.98;100884.47;5007194;28;20109;-71
2022/06/23 17:35:04;;;;;;;8.77;1.88;;;;;;;33.63;30.87;100881.34;5002289;28;20022;-71
2022/06/23 17:37:38;;;;;;;6.85;1.65;;;;;;;33.58;30.55;100884.28;5002664;28;20021;-71
2022/06/23 17:46:05;;;;;;;8.93;1.75;;;;;;;32.83;31.73;100878.91;5004484;28;20021;-71
2022/06/23 17:48:38;;;;;;;4.97;1.90;;;;;;;32.44;32.25;100888.53;5020046;28;20087;-71
2022/06/23 17:51:15;;;;;;;5.43;1.80;;;;;;;32.46;32.01;100886.25;5009398;28;20132;-70
2022/06/23 17:54:09;;;;;;;6.30;1.48;;;;;;;32.87;31.86;100880.00;5010363;28;20045;-70
2022/06/23 17:57:06;;;;;;;4.90;2.00;;;;;;;32.85;31.68;100876.63;5029326;28;20087;-70
2022/06/23 17:59:53;;;;;;;3.30;1.63;;;;;;;32.56;32.36;100874.88;5038361;28;20012;-70
2022/06/23 18:02:21;;;;;;;8.52;1.90;;;;;;;32.66;32.48;100874.69;5021544;28;20041;-70
2022/06/23 18:04:51;;;;;;;5.25;1.58;;;;;;;31.94;33.48;100882.50;5032419;28;20025;-70
2022/06/23 18:07:30;;;;;;;4.43;1.88;;;;;;;31.37;34.24;100887.13;4997890;28;20038;-69
2022/06/23 18:10:40;;;;;;;7.75;1.80;;;;;;;31.77;33.92;100873.75;4994426;28;20022;-70
2022/06/23 18:13:18;;;;;;;20.88;2.22;;;;;;;31.69;34.14;100877.22;4988500;28;20100;-70
2022/06/23 18:16:09;;;;;;;11.32;2.05;;;;;;;31.78;33.84;100879.09;5006485;28;20114;-71
2022/06/23 18:18:46;;;;;;;5.22;1.65;;;;;;;31.24;34.26;100882.25;5001811;28;20018;-72
2022/06/23 18:21:15;;;;;;;2.55;1.80;;;;;;;30.86;35.12;100882.03;4996148;28;20045;-70
2022/06/23 18:23:49;;;;;;;5.85;1.70;;;;;;;31.27;34.69;100881.63;5005743;28;20337;-71
2022/06/23 18:26:34;;;;;;;1.95;1.40;;;;;;;30.96;34.91;100893.09;5011362;28;20482;-71
2022/06/23 18:29:14;;;;;;;6.32;2.00;;;;;;;31.06;34.95;100893.00;5010392;28;20033;-71
2022/06/23 18:31:48;;;;;;;9.15;1.42;;;;;;;31.11;35.02;100889.34;5014992;28;20097;-71
2022/06/23 18:34:26;;;;;;;4.05;1.45;;;;;;;30.93;35.64;100892.88;5011526;28;20025;-70
2022/06/23 18:37:19;;;;;;;5.03;1.38;;;;;;;31.00;35.40;100894.19;4998916;28;20037;-71
2022/06/23 18:40:00;;;;;;;7.15;1.75;;;;;;;30.70;35.52;100895.28;4995961;28;20022;-71
2022/06/23 18:42:37;;;;;;;4.60;1.30;;;;;;;30.30;36.41;100896.41;5006513;28;20032;-71
2022/06/23 18:45:31;;;;;;;3.20;1.70;;;;;;;29.81;37.48;100888.84;4998260;28;20033;-71
2022/06/23 18:48:06;;;;;;;7.10;2.47;;;;;;;29.86;37.30;100890.75;5006177;28;20046;-70
2022/06/23 18:50:32;;;;;;;3.90;1.70;;;;;;;29.49;38.12;100888.38;5003485;28;20022;-71
2022/06/23 18:53:08;;;;;;;5.20;2.03;;;;;;;29.06;39.00;100882.34;5027184;28;20021;-70
2022/06/23 18:55:41;;;;;;;9.60;1.60;;;;;;;29.14;39.00;100890.13;5007777;28;20029;-70
2022/06/23 18:58:24;;;;;;;5.53;1.80;;;;;;;29.00;39.37;100889.03;5016210;28;20029;-71
2022/06/23 19:01:02;;;;;;;5.72;1.60;;;;;;;29.10;38.86;100889.03;5009104;28;20026;-70
2022/06/23 19:03:34;;;;;;;5.25;1.50;;;;;;;28.86;39.62;100881.22;5012404;28;20032;-71
2022/06/23 19:06:15;;;;;;;7.85;1.85;;;;;;;28.25;40.62;100883.97;5011773;28;20037;-71
2022/06/23 19:08:41;;;;;;;6.95;2.03;;;;;;;27.99;41.51;100887.78;5019558;28;20025;-71
2022/06/23 19:11:30;;;;;;;5.43;1.75;;;;;;;27.87;41.50;100889.97;4997657;28;20120;-70
2022/06/23 19:14:16;;;;;;;1.88;1.30;;;;;;;27.39;42.74;100887.25;5030898;28;20044;-71
2022/06/23 19:17:01;;;;;;;6.47;1.85;;;;;;;27.35;42.63;100890.81;5024822;28;20106;-70
2022/06/23 19:19:43;;;;;;;3.13;1.40;;;;;;;26.77;43.90;100880.41;5015776;28;20023;-71
2022/06/23 19:22:34;;;;;;;4.13;1.33;;;;;;;26.63;44.25;100890.28;5018776;28;20026;-71
2022/06/23 19:25:10;;;;;;;4.35;1.60;;;;;;;26.46;45.11;100897.88;5024318;28;20383;-71
2022/06/23 19:27:45;;;;;;;9.20;1.50;;;;;;;26.48;45.12;100898.50;5023029;28;20025;-70
2022/06/23 19:30:24;;;;;;;3.40;1.63;;;;;;;26.43;44.98;100901.22;5015591;28;20098;-71
2022/06/23 19:33:03;;;;;;;5.97;1.75;;;;;;;25.83;46.54;100904.97;5020708;28;20068;-70
2022/06/23 19:35:30;;;;;;;3.45;2.15;;;;;;;25.87;46.77;100903.34;5021422;28;20029;-71
2022/06/23 19:38:06;;;;;;;5.47;1.67;;;;;;;25.82;46.70;100898.59;5002421;28;20030;-70
2022/06/23 19:40:53;;;;;;;3.80;1.92;;;;;;;25.61;47.33;100894.66;4995197;28;20034;-71
2022/06/23 19:43:28;;;;;;;4.10;1.80;;;;;;;25.62;47.17;100904.66;5004566;28;20112;-72
2022/06/23 19:46:13;;;;;;;7.75;2.10;;;;;;;25.34;47.88;100893.75;4997226;28;20038;-71
2022/06/23 19:48:44;;;;;;;1.58;1.45;;;;;;;25.13;48.37;100903.69;5003560;28;20018;-72
2022/06/23 19:51:22;;;;;;;4.47;1.75;;;;;;;24.98;49.07;100895.97;5003212;28;20057;-73
2022/06/23 19:53:59;;;;;;;5.75;1.73;;;;;;;25.05;48.84;100902.19;4994470;28;20076;-73
2022/06/23 19:56:35;;;;;;;4.03;1.80;;;;;;;25.15;48.75;100896.78;5009458;28;20478;-72
2022/06/23 19:59:25;;;;;;;8.15;1.67;;;;;;;24.90;49.47;100899.97;5017816;28;20034;-72
2022/06/23 20:01:59;;;;;;;7.20;1.42;;;;;;;24.91;49.60;100895.31;5011798;28;20105;-74
2022/06/23 20:04:41;;;;;;;10.43;6.53;;;;;;;24.92;49.36;100896.97;5003211;28;20109;-73
2022/06/23 20:07:31;;;;;;;4.63;1.70;;;;;;;24.75;50.02;100896.13;5015748;28;20516;-73
2022/06/23 20:10:05;;;;;;;10.35;2.22;;;;;;;24.58;50.30;100902.50;5025543;28;20040;-73
2022/06/23 20:12:36;;;;;;;5.97;1.98;;;;;;;24.53;50.79;100899.66;5032532;28;20017;-73
2022/06/23 20:15:14;;;;;;;21.15;2.47;;;;;;;24.40;51.23;100894.44;5027229;28;20029;-73
2022/06/23 20:17:52;;;;;;;4.80;1.83;;;;;;;24.31;51.76;100885.66;5031743;28;20013;-73
2022/06/23 20:20:36;;;;;;;7.63;2.35;;;;;;;24.36;51.80;100893.25;5022404;28;20032;-74
2022/06/23 20:23:20;;;;;;;7.13;1.80;;;;;;;24.18;52.30;100890.66;5021986;28;20562;-73
2022/06/23 20:25:45;;;;;;;6.20;2.08;;;;;;;23.99;52.30;100885.31;5032123;28;20021;-72
2022/06/23 20:28:35;;;;;;;6.95;2.30;;;;;;;23.91;52.84;100880.19;5026566;28;20463;-72
2022/06/23 20:31:07;;;;;;;8.10;2.05;;;;;;;23.91;52.93;100885.72;5032512;28;20042;-72
2022/06/23 20:33:46;;;;;;;3.65;2.15;;;;;;;23.68;53.74;100883.03;5034291;28;20095;-73
2022/06/23 20:36:38;;;;;;;6.18;2.10;;;;;;;23.61;54.59;100885.94;5034065;28;20029;-73
2022/06/23 20:39:18;;;;;;;4.43;2.17;;;;;;;23.58;53.93;100880.03;5026146;28;20029;-72
2022/06/23 20:41:53;;;;;;;5.32;1.80;;;;;;;23.52;54.04;100882.66;5024816;28;20018;-72
2022/06/23 20:44:52;;;;;;;5.47;2.60;;;;;;;23.35;55.42;100881.75;5008374;28;20384;-72
2022/06/23 20:47:45;;;;;;;3.58;2.17;;;;;;;23.34;55.67;100874.53;4978648;28;20109;-73
2022/06/23 20:50:20;;;;;;;10.52;2.15;;;;;;;23.15;56.45;100875.78;5008056;28;20026;-74
2022/06/23 20:52:53;;;;;;;8.13;3.03;;;;;;;23.11;56.07;100874.56;5007741;28;20076;-73
2022/06/23 20:55:41;;;;;;;4.05;2.20;;;;;;;23.19;56.09;100871.44;5002837;28;20044;-74
2022/06/23 20:58:49;;;;;;;4.00;2.42;;;;;;;22.95;57.17;100865.94;5014230;28;20032;-74
2022/06/23 21:01:18;;;;;;;4.13;2.40;;;;;;;22.98;56.47;100868.22;5009493;28;20092;-74
2022/06/23 21:03:55;;;;;;;4.30;1.92;;;;;;;22.94;56.67;100864.25;5015445;28;20061;-73
2022/06/23 21:06:31;;;;;;;3.83;2.47;;;;;;;22.89;57.38;100855.84;5006747;28;20018;-73
2022/06/23 21:09:12;;;;;;;7.30;2.22;;;;;;;22.86;57.61;100861.84;5005455;28;20026;-72
2022/06/23 21:12:09;;;;;;;3.72;2.40;;;;;;;22.75;57.53;100854.34;5006038;28;20088;-73
2022/06/23 21:14:45;;;;;;;3.95;2.67;;;;;;;22.65;58.33;100860.47;5005539;28;20033;-73
2022/06/23 21:17:33;;;;;;;5.07;2.63;;;;;;;22.56;58.42;100855.53;5000090;28;20537;-73
2022/06/23 21:20:04;;;;;;;6.97;2.88;;;;;;;22.57;58.40;100854.47;5029164;28;20029;-72
2022/06/23 21:22:46;;;;;;;6.72;2.75;;;;;;;22.54;58.39;100852.19;5025960;28;20017;-73
2022/06/23 21:25:27;;;;;;;8.05;2.60;;;;;;;22.49;58.69;100850.13;5032954;28;20098;-73
2022/06/23 21:28:01;;;;;;;10.95;3.53;;;;;;;22.47;58.60;100857.81;5032208;28;20021;-73
2022/06/23 21:30:46;;;;;;;4.43;3.08;;;;;;;22.39;59.07;100850.72;5035173;28;20405;-73
2022/06/23 21:33:21;;;;;;;9.23;2.67;;;;;;;22.30;58.88;100846.63;5035876;28;20037;-74
2022/06/23 21:35:52;;;;;;;5.00;2.60;;;;;;;22.37;59.05;100841.84;5029167;28;20049;-73
2022/06/23 21:38:28;;;;;;;4.18;2.70;;;;;;;22.37;59.01;100844.63;5027943;28;20020;-74
2022/06/23 21:41:04;;;;;;;6.30;2.20;;;;;;;22.26;59.45;100834.38;5031601;28;20040;-74
2022/06/23 21:43:45;;;;;;;10.15;2.78;;;;;;;22.01;59.81;100852.97;5012566;28;20040;-74
2022/06/23 21:46:31;;;;;;;8.68;2.83;;;;;;;22.14;59.61;100842.63;5023015;28;20041;-74
2022/06/23 21:49:52;;;;;;;3.28;2.22;;;;;;;22.14;59.64;100836.28;5003226;28;20128;-74
2022/06/23 21:52:32;;;;;;;5.07;2.67;;;;;;;22.04;59.46;100847.84;5005136;28;20184;-74
2022/06/23 21:55:12;;;;;;;10.48;4.03;;;;;;;21.90;60.08;100841.66;5006706;28;20435;-74
2022/06/23 21:57:56;;;;;;;5.20;2.78;;;;;;;22.10;59.34;100841.41;5009976;28;20022;-74
2022/06/23 22:00:29;;;;;;;7.60;2.45;;;;;;;22.06;59.67;100840.19;5015924;28;20052;-74
2022/06/23 22:03:22;;;;;;;11.82;2.55;;;;;;;22.03;59.31;100839.78;5008608;28;20080;-73
2022/06/23 22:06:21;;;;;;;8.48;2.83;;;;;;;21.99;59.27;100827.56;5006732;28;20080;-74
2022/06/23 22:09:06;;;;;;;6.75;2.63;;;;;;;21.96;59.15;100839.88;5031859;28;20032;-73
2022/06/23 22:11:41;;;;;;;7.30;2.75;;;;;;;21.92;59.44;100833.19;5004888;28;20088;-73
2022/06/23 22:14:31;;;;;;;8.98;2.78;;;;;;;21.93;58.87;100821.91;5029394;28;20025;-74
2022/06/23 22:17:00;;;;;;;5.75;2.72;;;;;;;21.77;59.40;100829.97;5019002;28;20057;-74
2022/06/23 22:19:43;;;;;;;8.73;3.00;;;;;;;21.77;59.02;100829.97;5010627;28;20044;-74
2022/06/23 22:22:24;;;;;;;6.85;3.10;;;;;;;21.79;58.56;100834.22;5021627;28;20030;-73
2022/06/23 22:27:47;;;;;;;4.30;2.47;;;;;;;21.78;58.45;100838.03;4998813;28;20045;-74
2022/06/23 22:30:30;;;;;;;7.30;2.30;;;;;;;21.79;58.62;100836.97;4995713;28;20256;-75
2022/06/23 22:33:21;;;;;;;4.40;2.33;;;;;;;21.80;58.56;100830.38;4991356;28;20065;-73
2022/06/23 22:36:22;;;;;;;7.20;2.55;;;;;;;21.91;57.74;100826.81;4991285;28;20030;-73
2022/06/23 22:38:58;;;;;;;5.05;2.17;;;;;;;21.78;58.35;100827.03;4990746;28;20033;-73
2022/06/23 22:41:24;;;;;;;8.27;2.30;;;;;;;21.75;58.02;100832.97;4990824;28;20129;-73
2022/06/23 22:43:50;;;;;;;6.38;2.63;;;;;;;21.84;57.84;100817.81;4990562;28;20073;-73
2022/06/23 22:46:24;;;;;;;4.63;2.47;;;;;;;21.68;57.88;100821.22;4990439;28;20026;-73
2022/06/23 22:49:06;;;;;;;3.83;2.35;;;;;;;21.55;58.19;100816.72;4997757;28;20114;-73
2022/06/23 22:51:32;;;;;;;9.30;2.80;;;;;;;21.67;57.95;100830.56;5016935;28;20021;-73
2022/06/23 22:54:02;;;;;;;4.25;2.15;;;;;;;21.62;58.18;100827.66;5010015;28;20026;-72
2022/06/23 22:56:43;;;;;;;3.13;2.22;;;;;;;21.80;57.58;100835.88;5009553;28;20021;-73
2022/06/23 22:59:21;;;;;;;6.57;2.05;;;;;;;21.68;57.58;100834.97;5011139;28;20038;-72
2022/06/23 23:01:51;;;;;;;5.82;2.30;;;;;;;21.54;58.00;100833.47;5025692;28;20088;-73
2022/06/23 23:04:44;;;;;;;9.85;2.60;;;;;;;21.49;57.98;100838.84;5009201;28;20041;-73
2022/06/23 23:07:15;;;;;;;9.40;2.60;;;;;;;21.63;57.58;100837.59;5009838;28;20036;-73
2022/06/23 23:09:48;;;;;;;11.07;2.47;;;;;;;21.56;57.91;100829.41;5007388;28;20103;-73
2022/06/23 23:12:44;;;;;;;3.83;2.42;;;;;;;21.58;58.01;100824.53;5008935;28;20022;-73
2022/06/23 23:15:15;;;;;;;3.60;2.45;;;;;;;21.57;57.64;100830.25;5009723;28;20041;-73
2022/06/23 23:17:55;;;;;;;3.78;2.15;;;;;;;21.57;57.57;100824.75;5026184;28;20045;-73
2022/06/23 23:20:21;;;;;;;2.78;1.83;;;;;;;21.49;57.90;100827.81;5034952;28;20040;-73
2022/06/23 23:22:47;;;;;;;9.68;2.47;;;;;;;21.54;57.48;100827.97;5034095;28;20025;-73
2022/06/23 23:25:21;;;;;;;5.00;2.35;;;;;;;21.33;58.13;100830.13;5029156;28;20094;-73
2022/06/23 23:28:05;;;;;;;6.78;2.00;;;;;;;21.48;57.20;100826.16;5022506;28;20075;-73
2022/06/23 23:30:31;;;;;;;4.25;2.28;;;;;;;21.38;57.68;100819.25;5001938;28;20029;-73
2022/06/23 23:32:57;;;;;;;4.35;2.28;;;;;;;21.34;57.60;100820.78;5023953;28;20036;-73
2022/06/23 23:35:50;;;;;;;6.40;2.28;;;;;;;21.36;57.39;100828.81;5028425;28;20080;-74
2022/06/23 23:38:45;;;;;;;5.50;2.35;;;;;;;21.38;57.26;100821.16;5031402;28;20481;-74
2022/06/23 23:41:25;;;;;;;7.43;2.70;;;;;;;21.33;57.50;100818.28;5033496;28;20439;-74
2022/06/23 23:43:52;;;;;;;7.53;2.28;;;;;;;21.39;57.16;100828.38;5031301;28;20052;-74
2022/06/23 23:46:28;;;;;;;4.95;2.80;;;;;;;21.34;57.02;100815.28;5030910;28;20021;-72
2022/06/23 23:48:59;;;;;;;5.65;2.30;;;;;;;21.22;57.26;100822.59;5019330;28;20022;-72